Time;durP1;ratioP1;P1;durP2;ratioP2;P2;SDS_P1;SDS_P2;PMS_P1;PMS_P2;Temp;Humidity;BMP_temperature;BMP_pressure;BME280_temperature;BME280_humidity;BME280_pressure;Samples;Min_cycle;Max_cycle;Signal;HPM_P1;HPM_P2
2022/10/30 00:00:35;;;;;;;10.65;4.35;;;15.10;99.90;;;14.81;100.00;97646.91;5046247;22;20025;-66
2022/10/30 00:03:01;;;;;;;11.80;3.78;;;15.10;99.90;;;14.80;100.00;97650.47;5010149;28;20044;-66
2022/10/30 00:05:27;;;;;;;11.43;4.13;;;15.10;99.90;;;14.79;100.00;97651.44;5007096;28;20025;-67
2022/10/30 00:07:56;;;;;;;11.45;4.07;;;15.10;99.90;;;14.80;100.00;97647.81;5006480;28;20026;-66
2022/10/30 00:10:22;;;;;;;9.65;3.47;;;15.10;99.90;;;14.81;100.00;97647.75;5006167;28;20025;-67
2022/10/30 00:12:48;;;;;;;11.35;4.15;;;15.10;99.90;;;14.81;100.00;97638.94;4991429;28;20433;-67
2022/10/30 00:15:14;;;;;;;10.88;3.92;;;15.10;99.90;;;14.80;100.00;97639.88;4994283;28;20160;-67
2022/10/30 00:17:40;;;;;;;7.70;3.35;;;15.10;99.90;;;14.77;100.00;97640.00;4992424;28;20037;-67
2022/10/30 00:20:07;;;;;;;9.90;3.50;;;15.10;99.90;;;14.82;100.00;97641.53;4994423;28;20026;-67
2022/10/30 00:22:35;;;;;;;11.93;4.07;;;15.00;99.90;;;14.80;100.00;97645.16;5008717;28;20026;-67
2022/10/30 00:25:02;;;;;;;9.65;3.53;;;15.10;99.90;;;14.78;100.00;97644.41;5010031;28;20026;-67
2022/10/30 00:27:28;;;;;;;7.93;3.33;;;15.00;99.90;;;14.74;100.00;97626.91;4994927;28;20023;-67
2022/10/30 00:29:53;;;;;;;9.45;3.60;;;15.00;99.90;;;14.77;100.00;97632.03;4994557;28;20045;-67
2022/10/30 00:32:19;;;;;;;6.97;3.38;;;15.00;99.90;;;14.76;100.00;97633.00;4990887;28;20022;-67
2022/10/30 00:34:45;;;;;;;7.43;3.55;;;15.00;99.90;;;14.73;100.00;97635.78;4988364;28;20514;-68
2022/10/30 00:37:11;;;;;;;7.63;3.28;;;15.00;99.90;;;14.72;100.00;97637.59;4992208;28;20042;-68
2022/10/30 00:39:36;;;;;;;8.70;3.05;;;15.00;99.90;;;14.70;100.00;97627.06;4993808;28;20030;-68
2022/10/30 00:42:02;;;;;;;5.68;2.88;;;15.00;99.90;;;14.68;100.00;97626.28;4992009;28;20015;-68
2022/10/30 00:45:00;;;;;;;6.28;3.13;;;14.90;99.90;;;14.62;100.00;97621.25;4991599;28;20026;-68
2022/10/30 00:47:33;;;;;;;9.80;3.20;;;14.90;99.90;;;14.68;100.00;97628.94;4971425;28;20133;-68
2022/10/30 00:50:18;;;;;;;9.10;3.05;;;14.90;99.90;;;14.72;100.00;97626.97;4989442;28;20108;-67
2022/10/30 00:53:01;;;;;;;10.82;3.10;;;15.00;99.90;;;14.76;100.00;97627.69;4990452;28;20033;-67
2022/10/30 00:55:43;;;;;;;7.70;2.80;;;15.00;99.90;;;14.75;100.00;97626.84;4987522;28;20030;-68
2022/10/30 00:58:15;;;;;;;15.80;3.67;;;15.00;99.90;;;14.75;100.00;97628.59;4991863;28;20031;-68
2022/10/30 01:00:48;;;;;;;8.57;3.30;;;15.00;99.90;;;14.74;100.00;97629.56;5006293;28;20061;-68
2022/10/30 01:03:14;;;;;;;7.28;3.00;;;15.00;99.90;;;14.74;100.00;97624.25;4992759;28;20487;-68
2022/10/30 01:05:44;;;;;;;7.88;3.45;;;15.00;99.90;;;14.72;100.00;97631.44;4992291;28;20038;-68
2022/10/30 01:08:10;;;;;;;7.78;3.53;;;15.00;99.90;;;14.75;100.00;97637.47;4991678;28;20072;-67
2022/10/30 01:10:37;;;;;;;7.80;3.50;;;15.00;99.90;;;14.79;100.00;97633.69;4990728;28;20466;-67
2022/10/30 01:13:03;;;;;;;8.02;3.55;;;15.00;99.90;;;14.78;100.00;97642.59;4992662;28;20030;-68
2022/10/30 01:15:38;;;;;;;12.63;3.80;;;15.10;99.90;;;14.81;100.00;97646.91;4990295;28;20310;-68
2022/10/30 01:18:34;;;;;;;10.25;3.70;;;15.10;99.90;;;14.72;100.00;97644.72;4992468;28;20022;-68
2022/10/30 01:21:22;;;;;;;10.27;4.15;;;15.00;99.90;;;14.58;100.00;97635.63;4992320;28;20023;-68
2022/10/30 01:24:15;;;;;;;14.00;4.65;;;14.90;99.90;;;14.45;100.00;97647.75;4989471;28;20038;-68
2022/10/30 01:27:12;;;;;;;14.38;4.88;;;14.80;99.90;;;14.32;100.00;97651.00;4991301;28;20038;-68
2022/10/30 01:29:40;;;;;;;12.82;5.57;;;14.70;99.90;;;14.19;100.00;97641.03;4990892;28;20288;-67
2022/10/30 01:32:19;;;;;;;16.48;5.85;;;14.60;99.90;;;14.09;100.00;97638.81;4990832;28;20101;-68
2022/10/30 01:35:34;;;;;;;10.18;5.32;;;14.50;99.90;;;14.02;100.00;97634.75;4989805;28;20027;-68
2022/10/30 01:38:38;;;;;;;11.55;5.45;;;14.40;99.90;;;13.93;100.00;97629.88;4991842;28;20022;-67
2022/10/30 01:41:04;;;;;;;11.65;5.10;;;14.20;99.90;;;13.90;100.00;97632.66;4934951;28;20026;-67
2022/10/30 01:43:31;;;;;;;10.82;5.30;;;14.20;99.90;;;13.91;100.00;97627.28;4980114;28;20242;-68
2022/10/30 01:46:33;;;;;;;9.98;4.55;;;14.20;99.90;;;13.92;100.00;97622.84;4989659;28;20412;-68
2022/10/30 01:49:14;;;;;;;12.15;4.43;;;14.20;99.90;;;13.90;100.00;97616.75;4990229;28;20030;-67
2022/10/30 01:52:17;;;;;;;12.17;4.97;;;14.20;99.90;;;13.90;100.00;97614.94;4989192;28;20338;-68
2022/10/30 01:54:49;;;;;;;;;;;14.20;99.90;;;13.88;100.00;97614.16;4993308;28;20284;-68
2022/10/30 01:57:24;;;;;;;17.10;5.55;;;14.20;99.90;;;13.88;100.00;97611.53;4991693;28;19918;-68
2022/10/30 02:00:07;;;;;;;10.52;5.20;;;14.20;99.90;;;13.87;100.00;97612.47;4992504;28;20514;-67
2022/10/30 02:02:33;;;;;;;8.88;5.05;;;14.20;99.90;;;13.86;100.00;97596.63;4988920;28;20359;-66
2022/10/30 02:05:00;;;;;;;10.10;5.50;;;14.20;99.90;;;13.81;100.00;97583.56;4993061;28;20054;-67
2022/10/30 02:07:26;;;;;;;12.93;5.75;;;14.20;99.90;;;13.93;100.00;97598.91;4990765;28;20049;-67
2022/10/30 02:09:53;;;;;;;12.25;5.30;;;14.20;99.90;;;13.98;100.00;97596.06;4990882;28;20432;-67
2022/10/30 02:12:21;;;;;;;10.23;5.72;;;14.20;99.90;;;13.97;100.00;97596.13;4985418;28;20026;-67
2022/10/30 02:14:52;;;;;;;9.25;5.22;;;14.20;99.90;;;13.97;100.00;97590.81;4990823;28;20029;-68
2022/10/30 02:17:18;;;;;;;11.35;5.30;;;14.30;99.90;;;13.94;100.00;97584.72;5006021;28;20113;-68
2022/10/30 02:19:44;;;;;;;14.20;5.72;;;14.30;99.90;;;13.98;100.00;97584.56;4990080;28;20101;-67
2022/10/30 02:22:11;;;;;;;10.20;4.75;;;14.30;99.90;;;13.99;100.00;97595.09;4993224;28;20524;-67
2022/10/30 02:24:37;;;;;;;11.38;5.72;;;14.20;99.90;;;13.97;100.00;97594.31;4989822;28;20034;-68
2022/10/30 02:27:03;;;;;;;10.93;4.88;;;14.30;99.90;;;13.97;100.00;97589.00;4990193;28;20157;-68
2022/10/30 02:29:29;;;;;;;10.60;4.90;;;14.20;99.90;;;13.94;100.00;97590.03;4991847;28;20048;-67
2022/10/30 02:31:55;;;;;;;10.70;4.65;;;14.20;99.90;;;13.91;100.00;97581.38;4989650;28;20034;-67
2022/10/30 02:34:21;;;;;;;13.02;4.60;;;14.20;99.90;;;13.86;100.00;97583.38;4992469;28;20030;-68
2022/10/30 02:36:46;;;;;;;10.57;5.00;;;14.20;99.90;;;13.83;100.00;97584.34;4991060;28;20113;-68
2022/10/30 02:39:12;;;;;;;12.70;5.38;;;14.10;99.90;;;13.80;100.00;97586.28;4992173;28;20109;-68
2022/10/30 02:41:38;;;;;;;15.32;5.20;;;14.10;99.90;;;13.76;100.00;97593.53;4988554;28;20109;-67
2022/10/30 02:44:05;;;;;;;10.65;4.97;;;14.10;99.90;;;13.72;100.00;97589.31;4991190;28;20479;-67
2022/10/30 02:46:31;;;;;;;12.23;5.47;;;14.00;99.90;;;13.67;100.00;97593.97;4990977;28;20057;-67
2022/10/30 02:48:57;;;;;;;17.02;6.35;;;13.90;99.90;;;13.62;100.00;97586.25;4991044;28;20041;-68
2022/10/30 02:51:22;;;;;;;15.52;5.88;;;13.90;99.90;;;13.56;100.00;97584.72;4990734;28;20031;-67
2022/10/30 02:53:48;;;;;;;9.57;5.15;;;13.80;99.90;;;13.52;100.00;97580.50;4989347;28;20078;-67
2022/10/30 02:56:15;;;;;;;13.80;5.90;;;13.80;99.90;;;13.43;100.00;97575.63;4991214;28;20137;-67
2022/10/30 02:58:41;;;;;;;19.67;5.57;;;13.70;99.90;;;13.44;100.00;97577.34;4991531;28;20509;-68
2022/10/30 03:01:14;;;;;;;11.77;5.32;;;13.70;99.90;;;13.44;100.00;97584.41;4991230;28;20049;-67
2022/10/30 03:03:41;;;;;;;12.70;5.10;;;13.70;99.90;;;13.43;100.00;97585.38;4991704;28;20120;-68
2022/10/30 03:06:09;;;;;;;9.57;4.60;;;13.70;99.90;;;13.40;100.00;97583.69;4990313;28;20041;-68
2022/10/30 03:08:36;;;;;;;8.93;4.03;;;13.70;99.90;;;13.37;100.00;97586.50;4990175;28;20318;-68
2022/10/30 03:11:06;;;;;;;8.77;3.80;;;13.60;99.90;;;13.34;100.00;97582.19;4989590;28;20061;-67
2022/10/30 03:13:33;;;;;;;6.88;3.75;;;13.60;99.90;;;13.32;100.00;97581.41;4989033;28;20895;-68
2022/10/30 03:16:05;;;;;;;9.85;4.22;;;13.60;99.90;;;13.31;100.00;97577.03;4990128;28;20022;-67
2022/10/30 03:18:32;;;;;;;8.10;3.70;;;13.60;99.90;;;13.28;100.00;97582.44;4986498;28;20052;-68
2022/10/30 03:21:00;;;;;;;18.60;4.05;;;13.50;99.90;;;13.25;100.00;97577.28;4985937;28;20030;-67
2022/10/30 03:23:27;;;;;;;7.78;3.38;;;13.50;99.90;;;13.18;100.00;97575.84;4989819;28;20081;-69
2022/10/30 03:25:57;;;;;;;7.28;4.00;;;13.50;99.90;;;13.17;100.00;97584.69;4989638;28;20033;-67
2022/10/30 03:28:27;;;;;;;9.52;3.67;;;13.50;99.90;;;13.14;100.00;97582.19;4989297;28;20048;-67
2022/10/30 03:31:08;;;;;;;10.13;3.67;;;13.50;99.90;;;13.13;100.00;97585.78;4990081;28;20396;-67
2022/10/30 03:33:35;;;;;;;9.00;3.75;;;13.40;99.90;;;13.08;100.00;97580.69;4991456;28;20053;-67
2022/10/30 03:36:03;;;;;;;7.38;3.28;;;13.40;99.90;;;13.10;100.00;97585.91;4988672;28;20061;-67
2022/10/30 03:38:28;;;;;;;6.88;3.55;;;13.40;99.90;;;13.10;100.00;97591.19;4990369;28;20399;-67
2022/10/30 03:40:54;;;;;;;11.32;3.80;;;13.40;99.90;;;13.10;100.00;97599.13;4988962;28;20108;-67
2022/10/30 03:43:21;;;;;;;8.15;4.05;;;13.40;99.90;;;13.07;100.00;97599.28;4989222;28;20034;-67
2022/10/30 03:45:49;;;;;;;8.48;4.05;;;13.40;99.90;;;13.05;100.00;97601.16;4988902;28;20064;-67
2022/10/30 03:48:17;;;;;;;7.38;3.78;;;13.30;99.90;;;13.04;100.00;97602.06;4989548;28;20488;-67
2022/10/30 03:50:43;;;;;;;11.50;4.53;;;13.30;99.90;;;13.01;100.00;97597.78;4993076;28;20034;-67
2022/10/30 03:53:09;;;;;;;9.27;3.83;;;13.30;99.90;;;12.98;100.00;97597.91;4994563;28;20408;-67
2022/10/30 03:55:35;;;;;;;8.55;4.13;;;13.30;99.90;;;12.99;100.00;97596.97;4994739;28;20046;-67
2022/10/30 03:58:01;;;;;;;9.65;4.22;;;13.30;99.90;;;12.98;100.00;97601.41;4992623;28;20347;-67
2022/10/30 04:00:26;;;;;;;10.45;4.20;;;13.20;99.90;;;12.98;100.00;97600.53;4993249;28;20187;-67
2022/10/30 04:02:52;;;;;;;7.97;4.15;;;13.20;99.90;;;12.97;100.00;97602.34;4993688;28;20038;-67
2022/10/30 04:05:21;;;;;;;11.13;4.78;;;13.20;99.90;;;12.92;100.00;97591.09;4994118;28;20030;-68
2022/10/30 04:07:47;;;;;;;11.27;4.75;;;13.20;99.90;;;12.92;100.00;97603.44;4994727;28;20341;-67
2022/10/30 04:10:14;;;;;;;9.15;4.82;;;13.20;99.90;;;12.89;100.00;97595.66;4994855;28;20084;-67
2022/10/30 04:12:40;;;;;;;10.65;5.50;;;13.20;99.90;;;12.87;100.00;97597.50;4993152;28;20109;-67
2022/10/30 04:15:07;;;;;;;11.80;5.45;;;13.20;99.90;;;12.82;100.00;97595.03;4991724;28;20125;-67
2022/10/30 04:17:34;;;;;;;8.82;5.68;;;13.20;99.90;;;12.82;100.00;97604.78;4995315;28;20028;-67
2022/10/30 04:19:59;;;;;;;14.73;6.40;;;13.20;99.90;;;12.78;100.00;97604.91;4994295;28;20022;-67
2022/10/30 04:22:25;;;;;;;14.65;6.13;;;13.10;99.90;;;12.74;100.00;97603.31;4994924;28;20041;-67
2022/10/30 04:24:52;;;;;;;9.25;5.38;;;13.10;99.90;;;12.71;100.00;97592.84;4990758;28;20101;-67
2022/10/30 04:27:19;;;;;;;9.98;4.97;;;13.10;99.90;;;12.75;100.00;97604.19;4992303;28;20497;-67
2022/10/30 04:29:46;;;;;;;12.13;4.47;;;13.00;99.90;;;12.70;100.00;97596.41;4993409;28;20032;-67
2022/10/30 04:32:12;;;;;;;8.82;4.22;;;13.00;99.90;;;12.73;100.00;97606.03;4992843;28;20032;-69
2022/10/30 04:34:38;;;;;;;9.23;4.03;;;13.00;99.90;;;12.72;100.00;97610.47;4994688;28;20201;-68
2022/10/30 04:37:05;;;;;;;7.93;3.95;;;13.00;99.90;;;12.71;100.00;97608.75;4992304;28;20030;-67
2022/10/30 04:39:31;;;;;;;12.02;4.43;;;13.00;99.90;;;12.71;100.00;97613.19;4992143;28;20018;-67
2022/10/30 04:41:57;;;;;;;7.18;3.72;;;13.00;99.90;;;12.69;100.00;97610.59;4992914;28;20034;-67
2022/10/30 04:44:23;;;;;;;12.35;4.10;;;13.00;99.90;;;12.69;100.00;97605.31;4992987;28;20039;-67
2022/10/30 04:46:48;;;;;;;10.43;4.18;;;13.00;99.90;;;12.68;100.00;97606.22;4994226;28;20026;-66
2022/10/30 04:49:14;;;;;;;9.88;4.13;;;13.00;99.90;;;12.65;100.00;97603.72;4992813;28;20039;-67
2022/10/30 04:51:40;;;;;;;7.93;4.22;;;13.00;99.90;;;12.65;100.00;97606.38;4992558;28;20412;-67
2022/10/30 04:54:05;;;;;;;9.95;4.50;;;12.90;99.90;;;12.64;100.00;97607.28;4992702;28;20069;-67
2022/10/30 04:56:34;;;;;;;12.05;4.63;;;13.00;99.90;;;12.61;100.00;97604.75;4993897;28;20022;-67
2022/10/30 04:59:00;;;;;;;10.82;4.30;;;12.90;99.90;;;12.60;100.00;97600.41;4993444;28;20022;-67
2022/10/30 05:01:25;;;;;;;8.13;4.00;;;12.90;99.90;;;12.58;100.00;97602.25;4992969;28;20112;-67
2022/10/30 05:03:51;;;;;;;11.63;3.90;;;12.90;99.90;;;12.56;100.00;97604.06;4991260;28;20026;-68
2022/10/30 05:06:26;;;;;;;8.73;3.95;;;12.90;99.90;;;12.55;100.00;97602.38;4994055;28;20029;-67
2022/10/30 05:08:54;;;;;;;13.02;3.92;;;12.90;99.90;;;12.55;100.00;97597.09;4991838;28;20695;-68
2022/10/30 05:11:20;;;;;;;8.35;3.90;;;12.80;99.90;;;12.54;100.00;97598.88;4991303;28;20030;-67
2022/10/30 05:13:46;;;;;;;6.20;3.40;;;12.80;99.90;;;12.54;100.00;97596.22;4990263;28;20057;-68
2022/10/30 05:16:11;;;;;;;6.40;3.38;;;12.80;99.90;;;12.55;100.00;97600.56;4990823;28;20096;-68
2022/10/30 05:18:37;;;;;;;6.35;3.35;;;12.80;99.90;;;12.55;100.00;97591.78;4993139;28;20033;-67
2022/10/30 05:21:03;;;;;;;7.68;3.40;;;12.80;99.90;;;12.56;100.00;97588.19;4993856;28;20534;-67
2022/10/30 05:23:29;;;;;;;7.88;3.58;;;12.80;99.90;;;12.55;100.00;97586.50;4992442;28;20032;-68
2022/10/30 05:25:54;;;;;;;6.28;3.28;;;12.80;99.90;;;12.56;100.00;97589.09;4993487;28;20282;-68
2022/10/30 05:28:20;;;;;;;7.68;2.97;;;12.80;99.90;;;12.57;100.00;97587.28;4991661;28;20395;-68
2022/10/30 05:30:46;;;;;;;12.95;3.90;;;12.80;99.90;;;12.56;100.00;97580.25;4990896;28;20022;-67
2022/10/30 05:33:14;;;;;;;9.55;3.63;;;12.80;99.90;;;12.57;100.00;97588.13;4993703;28;20080;-68
2022/10/30 05:35:40;;;;;;;7.68;3.25;;;12.80;99.90;;;12.56;100.00;97583.78;4992022;28;20026;-68
2022/10/30 05:38:06;;;;;;;10.10;3.13;;;12.80;99.90;;;12.52;100.00;97576.88;4994026;28;20030;-68
2022/10/30 05:40:33;;;;;;;11.50;3.35;;;12.80;99.90;;;12.54;100.00;97583.00;4989796;28;20076;-67
2022/10/30 05:42:59;;;;;;;15.25;3.85;;;12.80;99.90;;;12.52;100.00;97590.13;4992490;28;20034;-68
2022/10/30 05:45:24;;;;;;;10.50;3.65;;;12.80;99.90;;;12.50;100.00;97584.03;4987478;28;20287;-68
2022/10/30 05:47:59;;;;;;;10.20;3.90;;;12.80;99.90;;;12.48;100.00;97587.69;4992155;28;20485;-68
2022/10/30 05:50:26;;;;;;;8.13;3.40;;;12.80;99.90;;;12.45;100.00;97579.88;4992044;28;20031;-67
2022/10/30 05:53:01;;;;;;;8.85;3.47;;;12.70;99.90;;;12.42;100.00;97586.16;4992725;28;20049;-67
2022/10/30 05:55:27;;;;;;;10.73;3.47;;;12.80;99.90;;;12.41;100.00;97587.91;4991866;28;20084;-67
2022/10/30 05:58:01;;;;;;;11.93;3.53;;;12.70;99.90;;;12.39;100.00;97581.84;4990678;28;20106;-68
2022/10/30 06:00:29;;;;;;;8.15;3.70;;;12.70;99.90;;;12.39;100.00;97580.97;4991615;28;20027;-69
2022/10/30 06:03:04;;;;;;;6.85;3.28;;;12.70;99.90;;;12.39;100.00;97588.91;4981206;23;20516;-54
2022/10/30 06:05:33;;;;;;;8.07;3.70;;;12.70;99.90;;;12.39;100.00;97586.28;4978794;28;20524;-53
2022/10/30 06:07:59;;;;;;;8.60;3.60;;;12.70;99.90;;;12.38;100.00;97590.72;4978528;28;20030;-55
2022/10/30 06:10:26;;;;;;;12.27;4.18;;;12.60;99.90;;;12.34;100.00;97593.53;4979095;28;20109;-54
2022/10/30 06:13:04;;;;;;;12.55;4.15;;;12.70;99.90;;;12.34;100.00;97596.16;4942323;28;20030;-54
2022/10/30 06:15:31;;;;;;;10.82;4.25;;;12.60;99.90;;;12.33;100.00;97591.81;4959722;28;20046;-54
2022/10/30 06:17:57;;;;;;;11.85;4.50;;;12.60;99.90;;;12.31;100.00;97597.16;4959680;28;20113;-53
2022/10/30 06:20:26;;;;;;;9.85;4.35;;;12.60;99.90;;;12.30;100.00;97599.88;4958970;28;20051;-53
2022/10/30 06:23:05;;;;;;;9.57;4.03;;;12.60;99.90;;;12.31;100.00;97599.81;4957102;28;20045;-54
2022/10/30 06:25:33;;;;;;;7.63;4.07;;;12.60;99.90;;;12.31;100.00;97593.66;4959233;28;20027;-54
2022/10/30 06:27:59;;;;;;;10.80;4.13;;;12.60;99.90;;;12.32;100.00;97600.66;4941797;28;20039;-54
2022/10/30 06:30:26;;;;;;;8.77;3.90;;;12.60;99.90;;;12.29;100.00;97593.75;4956773;28;20546;-53
2022/10/30 06:33:03;;;;;;;7.43;3.30;;;12.70;99.90;;;12.38;100.00;97608.34;4959533;28;20035;-53
2022/10/30 06:35:29;;;;;;;9.77;3.50;;;12.70;99.90;;;12.41;100.00;97603.78;4958679;28;20504;-55
2022/10/30 06:37:58;;;;;;;10.38;3.63;;;12.80;99.90;;;12.45;100.00;97611.59;4958722;28;20384;-55
2022/10/30 06:40:25;;;;;;;7.80;3.05;;;12.80;99.90;;;12.49;100.00;97600.84;4958245;28;20101;-53
2022/10/30 06:42:52;;;;;;;9.88;3.75;;;12.80;99.90;;;12.52;100.00;97594.56;4960067;28;20313;-53
2022/10/30 06:45:20;;;;;;;5.25;3.00;;;12.90;99.90;;;12.57;100.00;97604.00;4958221;28;20500;-54
2022/10/30 06:47:47;;;;;;;5.82;3.42;;;12.90;99.90;;;12.62;100.00;97603.84;4960754;28;20034;-55
2022/10/30 06:50:16;;;;;;;8.13;3.45;;;13.00;99.90;;;12.65;100.00;97601.06;4958371;28;20066;-53
2022/10/30 06:52:42;;;;;;;8.88;3.50;;;13.00;99.90;;;12.72;100.00;97607.81;4943410;28;20114;-55
2022/10/30 06:55:10;;;;;;;9.32;3.83;;;13.10;99.90;;;12.79;100.00;97603.13;4959161;28;20029;-54
2022/10/30 06:57:36;;;;;;;11.10;3.50;;;13.10;99.90;;;12.85;100.00;97600.22;4958828;28;20128;-55
2022/10/30 07:00:03;;;;;;;10.65;3.50;;;13.20;99.90;;;12.90;100.00;97598.25;4959628;28;20050;-55
2022/10/30 07:02:29;;;;;;;8.45;3.53;;;13.30;99.90;;;12.95;100.00;97600.66;4958506;28;20075;-55
2022/10/30 07:04:54;;;;;;;9.65;3.70;;;13.30;99.90;;;12.99;100.00;97603.13;4960593;28;20027;-55
2022/10/30 07:07:20;;;;;;;11.18;3.88;;;13.30;99.90;;;13.07;100.00;97608.09;4958834;28;20253;-55
2022/10/30 07:09:46;;;;;;;11.48;3.90;;;13.40;99.90;;;13.10;100.00;97602.66;4960662;28;20031;-55
2022/10/30 07:12:12;;;;;;;9.15;3.42;;;13.50;99.90;;;13.09;100.00;97598.28;4958302;28;20026;-54
2022/10/30 07:14:37;;;;;;;6.82;2.95;;;13.50;99.90;;;13.16;100.00;97599.72;4962008;28;20034;-55
2022/10/30 07:17:03;;;;;;;8.45;3.50;;;13.50;99.90;;;13.25;100.00;97611.72;4958338;28;20027;-55
2022/10/30 07:19:29;;;;;;;12.77;3.83;;;13.50;99.90;;;13.25;100.00;97605.56;4957796;28;20039;-55
2022/10/30 07:21:55;;;;;;;8.98;3.67;;;13.60;99.90;;;13.36;100.00;97616.56;4958013;28;20049;-55
2022/10/30 07:24:21;;;;;;;9.10;3.45;;;13.60;99.90;;;13.39;100.00;97613.78;4960334;28;20397;-54
2022/10/30 07:26:46;;;;;;;7.55;3.05;;;13.70;99.90;;;13.44;100.00;97614.44;4959318;28;20081;-54
2022/10/30 07:29:12;;;;;;;9.05;3.90;;;13.70;99.90;;;13.48;100.00;97616.00;4957181;28;20215;-53
2022/10/30 07:31:38;;;;;;;12.85;5.30;;;13.80;99.90;;;13.54;100.00;97621.03;4958459;28;20027;-55
2022/10/30 07:34:03;;;;;;;14.85;4.93;;;13.90;99.90;;;13.60;100.00;97625.19;4958172;28;20027;-54
2022/10/30 07:36:29;;;;;;;9.20;4.18;;;13.90;99.90;;;13.66;100.00;97624.06;4957896;28;20117;-54
2022/10/30 07:38:55;;;;;;;13.07;4.03;;;13.90;99.90;;;13.71;100.00;97614.97;4960343;28;20026;-54
2022/10/30 07:41:21;;;;;;;8.52;3.70;;;14.00;99.90;;;13.72;100.00;97610.50;4957537;28;20031;-42
2022/10/30 07:43:47;;;;;;;5.68;3.00;;;14.10;99.90;;;13.81;100.00;97622.50;4959671;28;20424;-48
2022/10/30 07:46:13;;;;;;;11.82;4.32;;;14.10;99.90;;;13.85;100.00;97619.59;4957979;28;20118;-50
2022/10/30 07:48:39;;;;;;;12.70;4.50;;;14.20;99.90;;;13.91;100.00;97618.50;4957625;28;20416;-50
2022/10/30 07:51:05;;;;;;;11.93;3.97;;;14.20;99.90;;;13.98;100.00;97619.03;4945161;28;20034;-48
2022/10/30 07:53:31;;;;;;;13.05;4.10;;;14.30;99.90;;;14.04;100.00;97626.72;4956522;28;20027;-47
2022/10/30 07:55:57;;;;;;;10.07;3.95;;;14.40;99.90;;;14.06;100.00;97612.44;4960027;28;20089;-51
2022/10/30 07:58:23;;;;;;;7.07;3.65;;;14.50;99.90;;;14.19;100.00;97620.66;4957351;28;20023;-47
2022/10/30 08:00:49;;;;;;;9.30;3.42;;;14.50;99.90;;;14.27;100.00;97620.31;4958861;28;20397;-49
2022/10/30 08:03:14;;;;;;;7.72;3.50;;;14.60;99.90;;;14.29;100.00;97614.00;4957584;28;20066;-50
2022/10/30 08:05:40;;;;;;;8.18;3.45;;;14.70;99.90;;;14.42;100.00;97624.88;4943642;28;20023;-50
2022/10/30 08:08:07;;;;;;;7.13;3.35;;;14.80;99.90;;;14.47;100.00;97616.69;4958057;28;20067;-48
2022/10/30 08:10:34;;;;;;;15.55;3.88;;;14.80;99.90;;;14.55;100.00;97625.13;4956442;28;20074;-50
2022/10/30 08:13:00;;;;;;;5.72;3.25;;;14.90;99.90;;;14.65;100.00;97631.72;4958210;28;20019;-42
2022/10/30 08:15:26;;;;;;;9.30;3.72;;;15.00;99.90;;;14.71;100.00;97619.94;4957034;28;20086;-46
2022/10/30 08:17:52;;;;;;;8.48;3.92;;;15.10;99.90;;;14.79;100.00;97622.22;4941355;28;20034;-48
2022/10/30 08:20:21;;;;;;;12.35;3.58;;;15.10;99.90;;;14.85;100.00;97629.88;4958813;28;20441;-47
2022/10/30 08:22:47;;;;;;;8.40;3.08;;;15.20;99.90;;;14.89;100.00;97619.03;4958472;28;20027;-46
2022/10/30 08:25:14;;;;;;;10.27;3.50;;;15.20;99.90;;;14.93;100.00;97625.03;4958485;28;20031;-46
2022/10/30 08:27:56;;;;;;;8.07;3.25;;;15.30;99.90;;;14.97;100.00;97617.78;4958764;28;20031;-45
2022/10/30 08:30:26;;;;;;;8.18;3.42;;;15.30;99.90;;;15.04;100.00;97622.69;4956451;28;20033;-47
2022/10/30 08:32:55;;;;;;;9.68;3.88;;;15.40;99.90;;;15.02;100.00;97621.91;4958972;28;20041;-45
2022/10/30 08:35:21;;;;;;;8.23;3.92;;;15.40;99.90;;;15.09;100.00;97625.09;4957862;28;20311;-46
2022/10/30 08:37:47;;;;;;;7.47;3.67;;;15.40;99.90;;;15.12;100.00;97622.28;4963438;28;20513;-49
2022/10/30 08:40:13;;;;;;;9.25;3.60;;;15.50;99.90;;;15.20;100.00;97627.19;4962477;28;20038;-47
2022/10/30 08:42:39;;;;;;;7.90;3.00;;;15.50;99.90;;;15.16;100.00;97607.03;4961586;28;20027;-46
2022/10/30 08:45:06;;;;;;;11.07;3.75;;;15.60;99.90;;;15.32;100.00;97621.25;4961813;28;20027;-47
2022/10/30 08:47:32;;;;;;;9.73;4.20;;;15.60;99.90;;;15.38;100.00;97626.25;4960597;28;20489;-48
2022/10/30 08:49:58;;;;;;;6.55;3.40;;;15.70;99.90;;;15.44;100.00;97625.91;4961460;28;20039;-47
2022/10/30 08:52:24;;;;;;;8.80;4.05;;;15.80;99.90;;;15.49;100.00;97627.47;4959046;28;20335;-46
2022/10/30 08:54:50;;;;;;;9.88;3.90;;;15.80;99.90;;;15.52;100.00;97620.19;4960870;28;20365;-46
2022/10/30 08:57:15;;;;;;;6.93;3.33;;;15.90;99.90;;;15.57;100.00;97619.94;4960930;28;20023;-47
2022/10/30 08:59:41;;;;;;;10.52;3.72;;;15.90;99.90;;;15.62;100.00;97621.41;4962072;28;20043;-47
2022/10/30 09:02:08;;;;;;;6.07;3.10;;;15.90;99.90;;;15.67;100.00;97618.53;4960367;28;20057;-50
2022/10/30 09:04:33;;;;;;;6.15;3.20;;;16.00;99.90;;;15.73;100.00;97623.50;4960975;28;20111;-45
2022/10/30 09:07:00;;;;;;;12.50;4.28;;;16.10;99.90;;;15.76;100.00;97614.53;4961908;28;20441;-46
2022/10/30 09:09:26;;;;;;;6.28;3.25;;;16.20;99.90;;;15.88;100.00;97627.16;4960465;28;20125;-49
2022/10/30 09:11:52;;;;;;;9.20;3.00;;;16.20;99.90;;;15.94;100.00;97628.63;4960822;28;20500;-46
2022/10/30 09:14:17;;;;;;;6.38;3.00;;;16.30;99.90;;;16.00;100.00;97625.63;4960585;28;20042;-47
2022/10/30 09:16:43;;;;;;;9.00;3.08;;;16.30;99.90;;;16.09;100.00;97627.75;4961448;28;20628;-48
2022/10/30 09:19:09;;;;;;;7.15;3.47;;;16.40;99.90;;;16.18;100.00;97627.25;4960339;28;20045;-47
2022/10/30 09:21:35;;;;;;;7.03;3.60;;;16.50;99.90;;;16.29;100.00;97623.97;4958937;28;20050;-48
2022/10/30 09:24:00;;;;;;;6.60;2.85;;;16.60;99.90;;;16.39;100.00;97629.66;4959659;28;20758;-47
2022/10/30 09:26:26;;;;;;;9.70;3.20;;;16.70;99.90;;;16.46;100.00;97632.84;4961544;28;20031;-47
2022/10/30 09:28:52;;;;;;;5.65;3.10;;;16.70;99.90;;;16.55;100.00;97632.31;4960115;28;20028;-47
2022/10/30 09:31:18;;;;;;;6.50;3.33;;;16.90;99.90;;;16.65;100.00;97635.28;4960018;28;20026;-50
2022/10/30 09:33:43;;;;;;;9.18;3.55;;;17.00;99.90;;;16.72;100.00;97639.31;4961194;28;20089;-48
2022/10/30 09:36:09;;;;;;;8.02;3.38;;;17.00;99.90;;;16.78;100.00;97637.16;4960024;28;20034;-47
2022/10/30 09:38:35;;;;;;;9.40;4.00;;;17.10;99.90;;;16.85;100.00;97643.03;4960357;28;20023;-50
2022/10/30 09:41:45;;;;;;;9.85;3.47;;;17.20;99.90;;;16.91;100.00;97640.00;4962243;28;20213;-48
2022/10/30 09:44:34;;;;;;;6.75;3.28;;;17.20;99.90;;;16.97;100.00;97642.28;4942535;28;20038;-45
2022/10/30 09:47:22;;;;;;;10.15;3.10;;;17.30;99.90;;;17.08;100.00;97638.97;4945514;28;20043;-47
2022/10/30 09:50:24;;;;;;;5.45;3.10;;;17.30;99.90;;;17.17;100.00;97643.78;4943140;28;20066;-48
2022/10/30 09:54:01;;;;;;;8.27;3.25;;;17.50;99.90;;;17.26;100.00;97647.69;4945315;28;20062;-47
2022/10/30 09:56:33;;;;;;;8.55;3.70;;;17.50;99.90;;;17.32;100.00;97651.81;4885797;29;20032;-49
2022/10/30 09:59:43;;;;;;;7.45;3.33;;;17.60;99.90;;;17.39;100.00;97649.59;4941776;28;20042;-47
2022/10/30 10:03:02;;;;;;;11.38;4.00;;;17.70;99.90;;;17.47;100.00;97650.00;4950374;28;20081;-46
2022/10/30 10:05:39;;;;;;;7.93;3.30;;;17.70;99.90;;;17.58;100.00;97649.34;4959381;28;20034;-47
2022/10/30 10:08:10;;;;;;;5.95;3.15;;;17.80;99.90;;;17.65;100.00;97654.22;4942869;28;20088;-48
2022/10/30 10:10:47;;;;;;;6.88;2.88;;;17.90;99.90;;;17.71;100.00;97652.97;4945393;28;20031;-47
2022/10/30 10:13:40;;;;;;;5.07;2.80;;;18.00;99.90;;;17.78;100.00;97648.13;4960065;28;20031;-50
2022/10/30 10:16:21;;;;;;;7.40;2.72;;;18.10;99.90;;;17.86;99.07;97649.41;4959558;28;20038;-47
2022/10/30 10:19:06;;;;;;;9.35;3.45;;;18.10;99.90;;;17.87;99.23;97648.44;4959583;28;20069;-46
2022/10/30 10:21:39;;;;;;;7.80;3.38;;;18.10;99.90;;;17.86;99.74;97651.22;4946161;28;20019;-48